This is the latest recevied weather packets stored in our database for station/object EA2DXT-10. If no packets are shown the sender has not sent any weather packets the latest 10 day(s).
| Time | Temp. | Humidity | Pressure | Rain* | Wind** | Luminosity | Snow |
|---|---|---|---|---|---|---|---|
| 1777497641 | 15.56° C | 82% | 943.7 hPa | - | - | - | - |
| 1777496741 | 15.56° C | 82% | 945.3 hPa | - | - | - | - |
| 1777496723 | 15.56° C | 82% | 946.3 hPa | - | - | - | - |
| 1777496711 | 15.56° C | 82% | 944.3 hPa | - | - | - | - |
| 1777495810 | 14.44° C | 82% | 943.3 hPa | - | - | - | - |
| 1777495798 | 14.44° C | 82% | 943.3 hPa | - | - | - | - |
| 1777494914 | 13.33° C | 81% | 943.3 hPa | - | - | - | - |
| 1777494898 | 13.33° C | 82% | 942.6 hPa | - | - | - | - |
| 1777494877 | 13.33° C | 81% | 943.3 hPa | - | - | - | - |
| 1777494005 | 14.44° C | 82% | 942.8 hPa | - | - | - | - |
| 1777493948 | 14.44° C | 82% | 942.8 hPa | - | - | - | - |
| 1777493048 | 13.33° C | 82% | 946.4 hPa | - | - | - | - |
| 1777493030 | 13.33° C | 81% | 946.5 hPa | - | - | - | - |
| 1777493011 | 13.33° C | 81% | 942.8 hPa | - | - | - | - |
| 1777492111 | 12.78° C | 82% | 947 hPa | - | - | - | - |
| 1777492078 | 6.11° C | 80% | 932.7 hPa | - | - | - | - |
| 1777492074 | 12.78° C | 82% | 942.8 hPa | - | - | - | - |
| 1777492057 | 12.78° C | 81% | 942.8 hPa | - | - | - | - |
| 1777492045 | 6.11° C | 80% | 932.7 hPa | - | - | - | - |
| 1777491177 | 12.78° C | 81% | 942.8 hPa | - | - | - | - |
| 1777491145 | 12.78° C | 81% | 942.8 hPa | - | - | - | - |
| 1777491127 | 11.11° C | 81% | 940.2 hPa | - | - | - | - |
| 1777491115 | 12.78° C | 80% | 942.8 hPa | - | - | - | - |
| 1777490215 | 13.33° C | 80% | 942.6 hPa | - | - | - | - |
| 1777489314 | 12.78° C | 80% | 941.1 hPa | - | - | - | - |
* Rain since midnight (hover to see other rain measurements)
** Current wind speed in m/s (hover to see current wind gust speed)